| time (UTC) | temp C | wind direction | speed KPH | gust KPH | rain 1hr cm | rain 24hr cm | rain mn cm | humidity % | barometer mb |
| 20260508023615 | 15 | 287 | 3.2 | 3.2 | 0.00 | 0.00 | 0.00 | 29 | 1017.2 |
| 20260508023113 | 15 | 265 | 3.2 | 12.9 | 0.00 | 0.00 | 0.00 | 25 | 1017.1 |
| 20260508022609 | 15 | 244 | 6.4 | 6.4 | 0.00 | 0.00 | 0.00 | 27 | 1017.0 |
| 20260508022107 | 15 | 263 | 4.8 | 9.7 | 0.00 | 0.00 | 0.00 | 26 | 1016.9 |
| 20260508021601 | 14 | 237 | 6.4 | 6.4 | 0.00 | 0.00 | 0.00 | 28 | 1016.9 |
| 20260508021058 | 15 | 248 | 1.6 | 1.6 | 0.00 | 0.00 | 0.00 | 29 | 1016.9 |
| 20260508020555 | 15 | 241 | 6.4 | 6.4 | 0.00 | 0.00 | 0.00 | 27 | 1016.6 |
| 20260508020053 | 15 | 240 | 4.8 | 4.8 | 0.00 | 0.00 | 0.00 | 26 | 1016.8 |
| 20260508015551 | 15 | 237 | 1.6 | 3.2 | 0.00 | 0.00 | 0.00 | 25 | 1016.8 |
| 20260508015047 | 15 | 308 | 3.2 | 14.5 | 0.00 | 0.00 | 0.00 | 25 | 1016.9 |
| 20260508014543 | 15 | 265 | 6.4 | 6.4 | 0.00 | 0.00 | 0.00 | 27 | 1016.5 |
| 20260508014040 | 15 | 262 | 3.2 | 4.8 | 0.00 | 0.00 | 0.00 | 27 | 1016.6 |
| 20260508013536 | 15 | 214 | 4.8 | 4.8 | 0.00 | 0.00 | 0.00 | 26 | 1016.5 |
| 20260508013033 | 16 | 169 | 0.0 | 0.0 | 0.00 | 0.00 | 0.00 | 25 | 1016.4 |
| 20260508012530 | 16 | 131 | 1.6 | 3.2 | 0.00 | 0.00 | 0.00 | 23 | 1016.1 |
| 20260508012028 | 16 | 257 | 1.6 | 3.2 | 0.00 | 0.00 | 0.00 | 24 | 1016.6 |
| 20260508011526 | 16 | 260 | 6.4 | 9.7 | 0.00 | 0.00 | 0.00 | 24 | 1016.5 |
| 20260508011023 | 16 | 20 | 1.6 | 4.8 | 0.00 | 0.00 | 0.00 | 23 | 1016.3 |
| 20260508010520 | 16 | 264 | 1.6 | 6.4 | 0.00 | 0.00 | 0.00 | 25 | 1016.4 |
| 20260508010017 | 16 | 258 | 4.8 | 6.4 | 0.00 | 0.00 | 0.00 | 24 | 1016.3 |
| 20260508005514 | 16 | 254 | 1.6 | 9.7 | 0.00 | 0.00 | 0.00 | 25 | 1016.3 |
| 20260508005011 | 17 | 342 | 0.0 | 1.6 | 0.00 | 0.00 | 0.00 | 24 | 1016.1 |
| 20260508004506 | 17 | 333 | 3.2 | 3.2 | 0.00 | 0.00 | 0.00 | 23 | 1016.3 |
| 20260508004003 | 17 | 292 | 0.0 | 1.6 | 0.00 | 0.00 | 0.00 | 24 | 1016.1 |
| 20260508003500 | 17 | 342 | 3.2 | 3.2 | 0.00 | 0.00 | 0.00 | 24 | 1016.3 |
| 20260508002957 | 17 | 35 | 3.2 | 3.2 | 0.00 | 0.00 | 0.00 | 24 | 1016.0 |
| 20260508002453 | 17 | 21 | 1.6 | 4.8 | 0.00 | 0.00 | 0.00 | 23 | 1016.3 |
| 20260508001950 | 17 | 344 | 1.6 | 3.2 | 0.00 | 0.00 | 0.00 | 22 | 1016.0 |
| 20260508001446 | 18 | 359 | 1.6 | 1.6 | 0.00 | 0.00 | 0.00 | 22 | 1016.1 |
| 20260508000943 | 18 | 73 | 1.6 | 3.2 | 0.00 | 0.00 | 0.00 | 23 | 1016.0 |
| 20260508000438 | 18 | 134 | 0.0 | 1.6 | 0.00 | 0.00 | 0.00 | 22 | 1016.3 |
| 20260507235936 | 17 | 259 | 3.2 | 4.8 | 0.00 | 0.00 | 0.00 | 22 | 1016.4 |
| 20260507235432 | 17 | 315 | 1.6 | 4.8 | 0.00 | 0.00 | 0.00 | 22 | 1016.1 |
| 20260507234930 | 18 | 348 | 8.0 | 6.4 | 0.00 | 0.00 | 0.00 | 22 | 1016.0 |
| 20260507234426 | 18 | 349 | 8.0 | 12.9 | 0.00 | 0.00 | 0.00 | 21 | 1016.3 |
| 20260507233923 | 18 | 20 | 4.8 | 6.4 | 0.00 | 0.00 | 0.00 | 22 | 1016.0 |
| 20260507233420 | 19 | 256 | 6.4 | 24.1 | 0.00 | 0.00 | 0.00 | 20 | 1016.3 |
| 20260507232919 | 19 | 311 | 6.4 | 9.7 | 0.00 | 0.00 | 0.00 | 20 | 1016.0 |
| 20260507232414 | 18 | 305 | 9.7 | 11.3 | 0.00 | 0.00 | 0.00 | 22 | 1016.0 |
| 20260507231912 | 18 | 25 | 6.4 | 6.4 | 0.00 | 0.00 | 0.00 | 23 | 1016.0 |
| 20260507231408 | 18 | 51 | 3.2 | 9.7 | 0.00 | 0.00 | 0.00 | 21 | 1016.3 |
| 20260507230905 | 18 | 329 | 3.2 | 14.5 | 0.00 | 0.00 | 0.00 | 22 | 1016.3 |
| 20260507230402 | 18 | 300 | 9.7 | 12.9 | 0.00 | 0.00 | 0.00 | 22 | 1016.0 |
| 20260507225902 | 18 | 17 | 9.7 | 14.5 | 0.00 | 0.00 | 0.00 | 21 | 1016.6 |
| 20260507225359 | 18 | 329 | 16.1 | 17.7 | 0.00 | 0.00 | 0.00 | 22 | 1016.4 |
| 20260507224855 | 18 | 301 | 9.7 | 11.3 | 0.00 | 0.00 | 0.00 | 23 | 1016.5 |
| 20260507224351 | 18 | 346 | 17.7 | 20.9 | 0.00 | 0.00 | 0.00 | 21 | 1016.4 |
| 20260507223847 | 18 | 1 | 12.9 | 17.7 | 0.00 | 0.00 | 0.00 | 22 | 1016.6 |
| 20260507223344 | 18 | 296 | 4.8 | 12.9 | 0.00 | 0.00 | 0.00 | 22 | 1016.6 |
| 20260507222841 | 18 | 257 | 4.8 | 12.9 | 0.00 | 0.00 | 0.00 | 21 | 1016.5 |
| 20260507222337 | 18 | 258 | 1.6 | 3.2 | 0.00 | 0.00 | 0.00 | 21 | 1016.5 |
| 20260507221834 | 18 | 336 | 9.7 | 12.9 | 0.00 | 0.00 | 0.00 | 22 | 1016.8 |
| 20260507221331 | 18 | 281 | 9.7 | 12.9 | 0.00 | 0.00 | 0.00 | 22 | 1016.5 |
| 20260507220827 | 18 | 335 | 9.7 | 27.4 | 0.00 | 0.00 | 0.00 | 22 | 1016.6 |
| 20260507220326 | 18 | 355 | 12.9 | 22.5 | 0.00 | 0.00 | 0.00 | 22 | 1016.4 |
| 20260507215821 | 17 | 1 | 17.7 | 25.7 | 0.00 | 0.00 | 0.00 | 21 | 1016.4 |
| 20260507215319 | 17 | 243 | 9.7 | 22.5 | 0.00 | 0.00 | 0.00 | 22 | 1016.8 |
| 20260507214816 | 17 | 349 | 6.4 | 17.7 | 0.00 | 0.00 | 0.00 | 22 | 1016.8 |
| 20260507214313 | 18 | 263 | 3.2 | 20.9 | 0.00 | 0.00 | 0.00 | 22 | 1016.8 |
| 20260507213808 | 18 | 338 | 11.3 | 16.1 | 0.00 | 0.00 | 0.00 | 22 | 1016.9 |
| 20260507213305 | 18 | 346 | 9.7 | 17.7 | 0.00 | 0.00 | 0.00 | 21 | 1016.6 |
| 20260507212802 | 18 | 350 | 9.7 | 25.7 | 0.00 | 0.00 | 0.00 | 22 | 1016.8 |
| 20260507212258 | 18 | 349 | 6.4 | 11.3 | 0.00 | 0.00 | 0.00 | 23 | 1017.1 |
| 20260507211754 | 18 | 341 | 25.7 | 29.0 | 0.00 | 0.00 | 0.00 | 22 | 1017.1 |
| 20260507211251 | 18 | 340 | 9.7 | 16.1 | 0.00 | 0.00 | 0.00 | 24 | 1017.2 |
| 20260507210748 | 17 | 264 | 12.9 | 17.7 | 0.00 | 0.00 | 0.00 | 24 | 1017.0 |
| 20260507210245 | 18 | 202 | 3.2 | 12.9 | 0.00 | 0.00 | 0.00 | 23 | 1017.2 |
| 20260507205742 | 18 | 325 | 4.8 | 9.7 | 0.00 | 0.00 | 0.00 | 23 | 1017.5 |
| 20260507205238 | 17 | 295 | 4.8 | 6.4 | 0.00 | 0.00 | 0.00 | 24 | 1017.4 |
| 20260507204734 | 17 | 348 | 11.3 | 22.5 | 0.00 | 0.00 | 0.00 | 24 | 1017.5 |
| 20260507204233 | 17 | 340 | 11.3 | 14.5 | 0.00 | 0.00 | 0.00 | 24 | 1017.6 |
| 20260507203730 | 17 | 327 | 9.7 | 14.5 | 0.00 | 0.00 | 0.00 | 25 | 1017.6 |
| 20260507203227 | 17 | 344 | 12.9 | 17.7 | 0.00 | 0.00 | 0.00 | 24 | 1017.7 |
| 20260507202723 | 17 | 337 | 11.3 | 16.1 | 0.00 | 0.00 | 0.00 | 26 | 1017.7 |
| 20260507202220 | 16 | 353 | 4.8 | 16.1 | 0.00 | 0.00 | 0.00 | 26 | 1018.0 |
| 20260507201714 | 16 | 1 | 3.2 | 20.9 | 0.00 | 0.00 | 0.00 | 26 | 1018.1 |
| 20260507201212 | 16 | 0 | 9.7 | 11.3 | 0.00 | 0.00 | 0.00 | 26 | 1018.0 |
| 20260507200708 | 16 | 328 | 16.1 | 20.9 | 0.00 | 0.00 | 0.00 | 25 | 1017.9 |
| 20260507200204 | 16 | 332 | 8.0 | 9.7 | 0.00 | 0.00 | 0.00 | 25 | 1018.0 |
| 20260507195700 | 15 | 341 | 6.4 | 11.3 | 0.00 | 0.00 | 0.00 | 27 | 1018.1 |
| 20260507195158 | 16 | 230 | 3.2 | 9.7 | 0.00 | 0.00 | 0.00 | 26 | 1018.3 |
| 20260507194655 | 15 | 321 | 3.2 | 9.7 | 0.00 | 0.00 | 0.00 | 26 | 1018.2 |
| 20260507194150 | 16 | 282 | 9.7 | 14.5 | 0.00 | 0.00 | 0.00 | 25 | 1018.6 |
| 20260507193647 | 16 | 326 | 4.8 | 9.7 | 0.00 | 0.00 | 0.00 | 25 | 1018.6 |
| 20260507193145 | 16 | 241 | 0.0 | 6.4 | 0.00 | 0.00 | 0.00 | 24 | 1018.6 |
| 20260507192640 | 16 | 356 | 9.7 | 12.9 | 0.00 | 0.00 | 0.00 | 25 | 1018.6 |
| 20260507192138 | 16 | 321 | 8.0 | 11.3 | 0.00 | 0.00 | 0.00 | 26 | 1018.8 |
| 20260507191633 | 17 | 17 | 11.3 | 17.7 | 0.00 | 0.00 | 0.00 | 25 | 1018.5 |
| 20260507191130 | 17 | 0 | 9.7 | 12.9 | 0.00 | 0.00 | 0.00 | 24 | 1018.7 |
| 20260507190627 | 16 | 348 | 9.7 | 17.7 | 0.00 | 0.00 | 0.00 | 25 | 1018.8 |
| 20260507190126 | 17 | 341 | 6.4 | 9.7 | 0.00 | 0.00 | 0.00 | 26 | 1018.8 |
| 20260507185624 | 16 | 0 | 8.0 | 14.5 | 0.00 | 0.00 | 0.00 | 26 | 1018.8 |
| 20260507185120 | 17 | 46 | 3.2 | 11.3 | 0.00 | 0.00 | 0.00 | 25 | 1019.0 |
| 20260507184618 | 17 | 279 | 6.4 | 12.9 | 0.00 | 0.00 | 0.00 | 24 | 1019.2 |
| 20260507184116 | 17 | 288 | 6.4 | 12.9 | 0.00 | 0.00 | 0.00 | 24 | 1019.2 |
| 20260507183612 | 17 | 270 | 8.0 | 20.9 | 0.00 | 0.00 | 0.00 | 23 | 1019.1 |
| 20260507183109 | 16 | 354 | 12.9 | 14.5 | 0.00 | 0.00 | 0.00 | 23 | 1019.0 |
| 20260507182605 | 16 | 33 | 9.7 | 16.1 | 0.00 | 0.00 | 0.00 | 23 | 1018.7 |
| 20260507182101 | 16 | 54 | 4.8 | 9.7 | 0.00 | 0.00 | 0.00 | 24 | 1018.7 |
| 20260507181559 | 16 | 73 | 4.8 | 4.8 | 0.00 | 0.00 | 0.00 | 22 | 1019.0 |
| 20260507181055 | 17 | 39 | 4.8 | 6.4 | 0.00 | 0.00 | 0.00 | 21 | 1018.7 |
| 20260507180551 | 16 | 22 | 3.2 | 4.8 | 0.00 | 0.00 | 0.00 | 23 | 1018.8 |
| 20260507180048 | 17 | 248 | 8.0 | 11.3 | 0.00 | 0.00 | 0.00 | 21 | 1019.0 |
| 20260507175544 | 16 | 347 | 6.4 | 9.7 | 0.00 | 0.00 | 0.00 | 22 | 1019.0 |
| 20260507175042 | 16 | 8 | 1.6 | 9.7 | 0.00 | 0.00 | 0.00 | 22 | 1019.1 |
| 20260507174539 | 16 | 35 | 4.8 | 6.4 | 0.00 | 0.00 | 0.00 | 23 | 1019.3 |
| 20260507174037 | 16 | 335 | 3.2 | 11.3 | 0.00 | 0.00 | 0.00 | 24 | 1019.5 |
| 20260507173533 | 15 | 335 | 8.0 | 11.3 | 0.00 | 0.00 | 0.00 | 23 | 1019.3 |
| 20260507173031 | 15 | 59 | 6.4 | 9.7 | 0.00 | 0.00 | 0.00 | 23 | 1019.6 |
| 20260507172526 | 15 | 214 | 9.7 | 9.7 | 0.00 | 0.00 | 0.00 | 22 | 1019.6 |
| 20260507172023 | 16 | 289 | 4.8 | 12.9 | 0.00 | 0.00 | 0.00 | 21 | 1019.6 |
| 20260507171519 | 15 | 358 | 6.4 | 9.7 | 0.00 | 0.00 | 0.00 | 23 | 1019.6 |
| 20260507171016 | 15 | 240 | 3.2 | 9.7 | 0.00 | 0.00 | 0.00 | 24 | 1019.8 |
| 20260507170513 | 15 | 255 | 4.8 | 14.5 | 0.00 | 0.00 | 0.00 | 22 | 1019.8 |
| 20260507170010 | 15 | 232 | 3.2 | 11.3 | 0.00 | 0.00 | 0.00 | 26 | 1019.7 |
| 20260507165506 | 15 | 348 | 6.4 | 14.5 | 0.00 | 0.00 | 0.00 | 24 | 1019.7 |
| 20260507165002 | 15 | 81 | 1.6 | 4.8 | 0.00 | 0.00 | 0.00 | 25 | 1019.8 |
| 20260507164458 | 14 | 4 | 6.4 | 11.3 | 0.00 | 0.00 | 0.00 | 24 | 1020.1 |
| 20260507163955 | 14 | 358 | 3.2 | 16.1 | 0.00 | 0.00 | 0.00 | 27 | 1020.1 |
| 20260507163453 | 15 | 333 | 9.7 | 12.9 | 0.00 | 0.00 | 0.00 | 24 | 1019.9 |
| 20260507162950 | 14 | 253 | 3.2 | 14.5 | 0.00 | 0.00 | 0.00 | 27 | 1020.1 |
| 20260507162445 | 15 | 12 | 6.4 | 9.7 | 0.00 | 0.00 | 0.00 | 25 | 1020.3 |
| 20260507161942 | 14 | 285 | 6.4 | 11.3 | 0.00 | 0.00 | 0.00 | 25 | 1020.1 |
| 20260507161438 | 14 | 331 | 6.4 | 12.9 | 0.00 | 0.00 | 0.00 | 25 | 1020.3 |
| 20260507160935 | 13 | 300 | 6.4 | 11.3 | 0.00 | 0.00 | 0.00 | 25 | 1020.1 |
| 20260507160431 | 13 | 8 | 8.0 | 11.3 | 0.00 | 0.00 | 0.00 | 26 | 1020.1 |
| 20260507155927 | 13 | 311 | 6.4 | 12.9 | 0.00 | 0.00 | 0.00 | 25 | 1020.1 |
| 20260507155423 | 13 | 357 | 8.0 | 12.9 | 0.00 | 0.00 | 0.00 | 28 | 1020.1 |
| 20260507154921 | 12 | 357 | 9.7 | 12.9 | 0.00 | 0.00 | 0.00 | 28 | 1020.1 |
| 20260507154417 | 12 | 4 | 6.4 | 12.9 | 0.00 | 0.00 | 0.00 | 30 | 1020.3 |
| 20260507153915 | 12 | 283 | 9.7 | 16.1 | 0.00 | 0.00 | 0.00 | 28 | 1020.4 |
| 20260507153411 | 12 | 235 | 6.4 | 9.7 | 0.00 | 0.00 | 0.00 | 27 | 1020.4 |
| 20260507152908 | 13 | 241 | 8.0 | 14.5 | 0.00 | 0.00 | 0.00 | 27 | 1020.2 |
| 20260507152404 | 12 | 357 | 4.8 | 9.7 | 0.00 | 0.00 | 0.00 | 28 | 1020.2 |
| 20260507151900 | 12 | 348 | 11.3 | 14.5 | 0.00 | 0.00 | 0.00 | 28 | 1020.1 |
| 20260507151356 | 12 | 234 | 3.2 | 12.9 | 0.00 | 0.00 | 0.00 | 29 | 1019.9 |
| 20260507150853 | 11 | 26 | 9.7 | 14.5 | 0.00 | 0.00 | 0.00 | 30 | 1020.2 |
| 20260507150350 | 11 | 297 | 4.8 | 27.4 | 0.00 | 0.00 | 0.00 | 30 | 1020.1 |
| 20260507145846 | 11 | 354 | 3.2 | 17.7 | 0.00 | 0.00 | 0.00 | 30 | 1020.3 |
| 20260507145343 | 11 | 242 | 12.9 | 16.1 | 0.00 | 0.00 | 0.00 | 29 | 1020.1 |
| 20260507144840 | 11 | 204 | 11.3 | 24.1 | 0.00 | 0.00 | 0.00 | 29 | 1020.1 |
| 20260507144337 | 11 | 317 | 14.5 | 20.9 | 0.00 | 0.00 | 0.00 | 29 | 1019.9 |
| 20260507143834 | 11 | 31 | 6.4 | 12.9 | 0.00 | 0.00 | 0.00 | 29 | 1020.1 |
| 20260507143331 | 11 | 0 | 6.4 | 12.9 | 0.00 | 0.00 | 0.00 | 30 | 1020.1 |
| 20260507142827 | 10 | 330 | 11.3 | 22.5 | 0.00 | 0.00 | 0.00 | 30 | 1019.9 |
| 20260507142323 | 10 | 269 | 9.7 | 27.4 | 0.00 | 0.00 | 0.00 | 31 | 1020.1 |
| 20260507141820 | 10 | 237 | 14.5 | 27.4 | 0.00 | 0.00 | 0.00 | 32 | 1019.8 |
| 20260507141317 | 10 | 342 | 8.0 | 14.5 | 0.00 | 0.00 | 0.00 | 32 | 1020.1 |
| 20260507140813 | 10 | 243 | 3.2 | 20.9 | 0.00 | 0.00 | 0.00 | 31 | 1020.2 |
| 20260507140310 | 10 | 344 | 6.4 | 16.1 | 0.00 | 0.00 | 0.00 | 33 | 1019.9 |
| 20260507135808 | 10 | 158 | 3.2 | 17.7 | 0.00 | 0.00 | 0.00 | 33 | 1019.9 |
| 20260507135306 | 10 | 227 | 9.7 | 27.4 | 0.00 | 0.00 | 0.00 | 32 | 1019.8 |
| 20260507134802 | 10 | 36 | 4.8 | 14.5 | 0.00 | 0.00 | 0.00 | 32 | 1020.1 |
| 20260507134258 | 9 | 44 | 4.8 | 22.5 | 0.00 | 0.00 | 0.00 | 32 | 1019.7 |
| 20260507133753 | 8 | 73 | 6.4 | 12.9 | 0.00 | 0.00 | 0.00 | 34 | 1019.8 |
| 20260507133250 | 7 | 127 | 1.6 | 12.9 | 0.00 | 0.00 | 0.00 | 42 | 1019.8 |
| 20260507132748 | 7 | 88 | 3.2 | 6.4 | 0.00 | 0.00 | 0.00 | 39 | 1019.9 |
| 20260507132245 | 7 | 33 | 6.4 | 6.4 | 0.00 | 0.00 | 0.00 | 37 | 1019.8 |
| 20260507131742 | 7 | 50 | 3.2 | 6.4 | 0.00 | 0.00 | 0.00 | 36 | 1019.7 |
| 20260507131239 | 9 | 64 | 4.8 | 9.7 | 0.00 | 0.00 | 0.00 | 35 | 1019.6 |
| 20260507130735 | 9 | 219 | 8.0 | 12.9 | 0.00 | 0.00 | 0.00 | 28 | 1019.7 |
| 20260507130233 | 9 | 44 | 3.2 | 4.8 | 0.00 | 0.00 | 0.00 | 31 | 1019.7 |
| 20260507125731 | 8 | 255 | 14.5 | 17.7 | 0.00 | 0.00 | 0.00 | 28 | 1019.6 |
| 20260507125229 | 8 | 286 | 6.4 | 9.7 | 0.00 | 0.00 | 0.00 | 30 | 1019.6 |
| 20260507124725 | 8 | 245 | 19.3 | 22.5 | 0.00 | 0.00 | 0.00 | 30 | 1019.5 |
| 20260507124222 | 8 | 342 | 6.4 | 11.3 | 0.00 | 0.00 | 0.00 | 32 | 1019.6 |
| 20260507123720 | 7 | 340 | 8.0 | 20.9 | 0.00 | 0.00 | 0.00 | 30 | 1019.2 |
| 20260507123218 | 7 | 238 | 6.4 | 12.9 | 0.00 | 0.00 | 0.00 | 33 | 1019.3 |
| 20260507122712 | 7 | 259 | 6.4 | 12.9 | 0.00 | 0.00 | 0.00 | 33 | 1019.3 |
| 20260507122209 | 6 | 288 | 12.9 | 16.1 | 0.00 | 0.00 | 0.00 | 32 | 1019.2 |
| 20260507121705 | 4 | 249 | 3.2 | 11.3 | 0.00 | 0.00 | 0.00 | 38 | 1019.5 |
| 20260507121201 | 3 | 62 | 0.0 | 6.4 | 0.00 | 0.00 | 0.00 | 42 | 1019.2 |
| 20260507120657 | 4 | 86 | 9.7 | 12.9 | 0.00 | 0.00 | 0.00 | 41 | 1019.3 |
| 20260507120154 | 6 | 143 | 1.6 | 6.4 | 0.00 | 0.00 | 0.00 | 38 | 1019.5 |
| 20260507115650 | 6 | 302 | 4.8 | 17.7 | 0.00 | 0.00 | 0.00 | 34 | 1019.5 |
| 20260507115146 | 5 | 211 | 4.8 | 14.5 | 0.00 | 0.00 | 0.00 | 36 | 1019.2 |
| 20260507114642 | 3 | 164 | 6.4 | 6.4 | 0.00 | 0.00 | 0.00 | 42 | 1019.5 |
| 20260507114139 | 2 | 79 | 1.6 | 6.4 | 0.00 | 0.00 | 0.00 | 47 | 1019.5 |
| 20260507113637 | 1 | 65 | 1.6 | 12.9 | 0.00 | 0.00 | 0.00 | 50 | 1019.5 |
| 20260507113133 | 1 | 86 | 0.0 | 9.7 | 0.00 | 0.00 | 0.00 | 51 | 1019.6 |
| 20260507112631 | 1 | 133 | 4.8 | 4.8 | 0.00 | 0.00 | 0.00 | 54 | 1019.6 |
| 20260507112128 | 2 | 106 | 1.6 | 3.2 | 0.00 | 0.00 | 0.00 | 50 | 1019.5 |
| 20260507111625 | 2 | 90 | 1.6 | 4.8 | 0.00 | 0.00 | 0.00 | 51 | 1019.6 |
| 20260507111122 | 2 | 294 | 6.4 | 6.4 | 0.00 | 0.00 | 0.00 | 52 | 1019.6 |
| 20260507110618 | 1 | 91 | 1.6 | 4.8 | 0.00 | 0.00 | 0.00 | 57 | 1019.7 |
| 20260507110115 | 1 | 190 | 3.2 | 3.2 | 0.00 | 0.00 | 0.00 | 53 | 1019.7 |
| 20260507105612 | 1 | 172 | 0.0 | 3.2 | 0.00 | 0.00 | 0.00 | 54 | 1019.7 |
| 20260507105107 | 0 | 172 | 3.2 | 3.2 | 0.00 | 0.00 | 0.00 | 59 | 1019.6 |
| 20260507104606 | 1 | 134 | 0.0 | 3.2 | 0.00 | 0.00 | 0.00 | 57 | 1019.7 |
| 20260507104101 | 1 | 123 | 3.2 | 3.2 | 0.00 | 0.00 | 0.00 | 53 | 1019.6 |
| 20260507103557 | 1 | 219 | 4.8 | 6.4 | 0.00 | 0.00 | 0.00 | 49 | 1019.5 |
| 20260507103054 | 1 | 154 | 8.0 | 9.7 | 0.00 | 0.00 | 0.00 | 51 | 1019.5 |
| 20260507102551 | 0 | 174 | 3.2 | 3.2 | 0.00 | 0.00 | 0.00 | 55 | 1019.6 |
| 20260507102047 | 0 | 199 | 3.2 | 4.8 | 0.00 | 0.00 | 0.00 | 58 | 1019.5 |
| 20260507101542 | 0 | 240 | 6.4 | 6.4 | 0.00 | 0.00 | 0.00 | 65 | 1019.8 |
| 20260507101039 | 0 | 249 | 4.8 | 4.8 | 0.00 | 0.00 | 0.00 | 64 | 1019.8 |
| 20260507100537 | 0 | 50 | 3.2 | 3.2 | 0.00 | 0.00 | 0.00 | 64 | 1019.9 |
| 20260507100035 | 1 | 234 | 0.0 | 1.6 | 0.00 | 0.00 | 0.00 | 62 | 1020.1 |
| 20260507095532 | 0 | 205 | 3.2 | 3.2 | 0.00 | 0.00 | 0.00 | 64 | 1019.9 |
| 20260507095029 | 0 | 217 | 1.6 | 3.2 | 0.00 | 0.00 | 0.00 | 61 | 1019.8 |
| 20260507094525 | 0 | 225 | 3.2 | 4.8 | 0.00 | 0.00 | 0.00 | 61 | 1019.8 |
| 20260507094022 | 0 | 186 | 1.6 | 4.8 | 0.00 | 0.00 | 0.00 | 60 | 1019.6 |
| 20260507093519 | 0 | 165 | 3.2 | 3.2 | 0.00 | 0.00 | 0.00 | 62 | 1019.6 |
| 20260507093018 | 0 | 167 | 0.0 | 3.2 | 0.00 | 0.00 | 0.00 | 64 | 1019.7 |
| 20260507092514 | 0 | 155 | 1.6 | 1.6 | 0.00 | 0.00 | 0.00 | 65 | 1019.6 |
| 20260507092011 | 0 | 154 | 3.2 | 3.2 | 0.00 | 0.00 | 0.00 | 63 | 1019.8 |
| 20260507091508 | 0 | 148 | 0.0 | 4.8 | 0.00 | 0.00 | 0.00 | 60 | 1020.1 |
| 20260507091003 | 0 | 229 | 6.4 | 6.4 | 0.00 | 0.00 | 0.00 | 67 | 1019.8 |
| 20260507090459 | 0 | 166 | 1.6 | 11.3 | 0.00 | 0.00 | 0.00 | 70 | 1019.9 |
| 20260507085956 | 0 | 183 | 1.6 | 1.6 | 0.00 | 0.00 | 0.00 | 74 | 1020.2 |
| 20260507085454 | -1 | 187 | 3.2 | 4.8 | 0.00 | 0.00 | 0.00 | 74 | 1020.1 |
| 20260507084950 | -1 | 218 | 3.2 | 3.2 | 0.00 | 0.00 | 0.00 | 83 | 1020.2 |
| 20260507084447 | -1 | 177 | 0.0 | 0.0 | 0.00 | 0.00 | 0.00 | 81 | 1019.9 |
| 20260507083944 | 0 | 189 | 3.2 | 3.2 | 0.00 | 0.00 | 0.00 | 79 | 1020.2 |
| 20260507083440 | -1 | 210 | 3.2 | 4.8 | 0.00 | 0.00 | 0.00 | 81 | 1020.4 |
| 20260507082937 | -1 | 179 | 3.2 | 3.2 | 0.00 | 0.00 | 0.00 | 87 | 1020.1 |
| 20260507082433 | -1 | 97 | 0.0 | 3.2 | 0.00 | 0.00 | 0.00 | 85 | 1020.4 |
| 20260507081930 | -2 | 206 | 4.8 | 4.8 | 0.00 | 0.00 | 0.00 | 92 | 1020.4 |
| 20260507081426 | -2 | 174 | 1.6 | 4.8 | 0.00 | 0.00 | 0.00 | 96 | 1020.6 |
| 20260507080923 | -2 | 177 | 0.0 | 0.0 | 0.00 | 0.00 | 0.00 | 97 | 1020.4 |
| 20260507080419 | -2 | 177 | 1.6 | 3.2 | 0.00 | 0.00 | 0.00 | 97 | 1020.4 |
| 20260507075914 | -2 | 175 | 0.0 | 3.2 | 0.00 | 0.00 | 0.00 | 97 | 1020.8 |
| 20260507075411 | -2 | 166 | 0.0 | 1.6 | 0.00 | 0.00 | 0.00 | 97 | 1020.9 |
| 20260507074907 | -2 | 134 | 1.6 | 1.6 | 0.00 | 0.00 | 0.00 | 97 | 1020.7 |
| 20260507074404 | -2 | 182 | 3.2 | 3.2 | 0.00 | 0.00 | 0.00 | 97 | 1020.7 |
| 20260507073902 | -2 | 67 | 0.0 | 0.0 | 0.00 | 0.00 | 0.00 | 97 | 1020.9 |
| 20260507073358 | -2 | 1 | 0.0 | 1.6 | 0.00 | 0.00 | 0.00 | 97 | 1020.9 |
| 20260507072855 | -2 | 266 | 1.6 | 4.8 | 0.00 | 0.00 | 0.00 | 97 | 1021.0 |
| 20260507072353 | -1 | 80 | 1.6 | 1.6 | 0.00 | 0.00 | 0.00 | 97 | 1021.0 |
| 20260507071850 | -1 | 175 | 1.6 | 1.6 | 0.00 | 0.00 | 0.00 | 97 | 1021.0 |
| 20260507071347 | -1 | 154 | 0.0 | 1.6 | 0.00 | 0.00 | 0.00 | 97 | 1021.0 |
| 20260507070843 | -1 | 176 | 3.2 | 3.2 | 0.00 | 0.00 | 0.00 | 97 | 1020.9 |
| 20260507070341 | -1 | 212 | 6.4 | 6.4 | 0.00 | 0.00 | 0.00 | 97 | 1021.2 |
| 20260507065837 | -2 | 204 | 3.2 | 4.8 | 0.00 | 0.00 | 0.00 | 97 | 1021.3 |
| 20260507065334 | -2 | 224 | 0.0 | 6.4 | 0.00 | 0.00 | 0.00 | 97 | 1021.5 |
| 20260507064831 | -2 | 235 | 4.8 | 4.8 | 0.00 | 0.00 | 0.00 | 97 | 1021.3 |
| 20260507064330 | -2 | 167 | 3.2 | 3.2 | 0.00 | 0.00 | 0.00 | 97 | 1021.2 |
| 20260507063827 | -2 | 237 | 0.0 | 3.2 | 0.00 | 0.00 | 0.00 | 97 | 1021.4 |
| 20260507063324 | -2 | 237 | 0.0 | 3.2 | 0.00 | 0.00 | 0.00 | 97 | 1021.2 |
| 20260507062820 | -1 | 244 | 1.6 | 3.2 | 0.00 | 0.00 | 0.00 | 97 | 1021.2 |
| 20260507062318 | -1 | 258 | 3.2 | 3.2 | 0.00 | 0.00 | 0.00 | 96 | 1021.2 |
| 20260507061816 | -1 | 255 | 0.0 | 1.6 | 0.00 | 0.00 | 0.00 | 96 | 1021.2 |
| 20260507061313 | -1 | 255 | 3.2 | 3.2 | 0.00 | 0.00 | 0.00 | 96 | 1021.0 |
| 20260507060812 | -1 | 205 | 1.6 | 3.2 | 0.00 | 0.00 | 0.00 | 96 | 1021.2 |
| 20260507060308 | -1 | 200 | 0.0 | 0.0 | 0.00 | 0.00 | 0.00 | 96 | 1021.0 |
| 20260507055804 | -1 | 200 | 0.0 | 0.0 | 0.00 | 0.25 | 0.25 | 96 | 1021.0 |
| 20260507055259 | -1 | 200 | 1.6 | 1.6 | 0.00 | 0.25 | 0.25 | 96 | 1020.8 |
| 20260507054756 | -1 | 199 | 0.0 | 3.2 | 0.00 | 0.25 | 0.25 | 96 | 1020.8 |
| 20260507054253 | -1 | 199 | 0.0 | 0.0 | 0.00 | 0.25 | 0.25 | 96 | 1021.0 |
| 20260507053750 | -1 | 199 | 0.0 | 0.0 | 0.00 | 0.25 | 0.25 | 95 | 1021.2 |
| 20260507053248 | -1 | 199 | 0.0 | 0.0 | 0.00 | 0.25 | 0.25 | 95 | 1021.2 |
| 20260507052747 | -1 | 199 | 0.0 | 0.0 | 0.00 | 0.25 | 0.25 | 95 | 1021.0 |
| 20260507052243 | -1 | 200 | 0.0 | 1.6 | 0.00 | 0.25 | 0.25 | 95 | 1020.8 |
| 20260507051741 | -1 | 200 | 1.6 | 4.8 | 0.00 | 0.25 | 0.25 | 95 | 1020.9 |
| 20260507051237 | -1 | 199 | 0.0 | 3.2 | 0.00 | 0.25 | 0.25 | 95 | 1020.9 |
| 20260507050734 | -1 | 196 | 0.0 | 0.0 | 0.00 | 0.25 | 0.25 | 95 | 1020.8 |
| 20260507050231 | -1 | 196 | 1.6 | 1.6 | 0.00 | 0.25 | 0.25 | 95 | 1020.7 |
| 20260507045728 | -1 | 197 | 1.6 | 1.6 | 0.00 | 0.25 | 0.25 | 94 | 1020.6 |
| 20260507045224 | -1 | 196 | 1.6 | 1.6 | 0.00 | 0.25 | 0.25 | 95 | 1020.7 |
| 20260507044721 | -1 | 196 | 0.0 | 1.6 | 0.00 | 0.25 | 0.25 | 94 | 1020.8 |
| 20260507044217 | -1 | 196 | 1.6 | 3.2 | 0.00 | 0.25 | 0.25 | 94 | 1020.9 |
| 20260507043714 | -1 | 196 | 0.0 | 0.0 | 0.00 | 0.25 | 0.25 | 94 | 1020.7 |
| 20260507043211 | -1 | 197 | 0.0 | 1.6 | 0.00 | 0.25 | 0.25 | 94 | 1020.8 |
| 20260507042707 | -1 | 196 | 0.0 | 3.2 | 0.00 | 0.25 | 0.25 | 94 | 1020.8 |
| 20260507042202 | -1 | 197 | 0.0 | 0.0 | 0.00 | 0.25 | 0.25 | 94 | 1020.8 |
| 20260507041700 | -1 | 197 | 0.0 | 3.2 | 0.00 | 0.25 | 0.25 | 94 | 1020.7 |
| 20260507041156 | -1 | 197 | 1.6 | 1.6 | 0.00 | 0.25 | 0.25 | 94 | 1021.0 |
| 20260507040653 | -1 | 197 | 1.6 | 1.6 | 0.00 | 0.25 | 0.25 | 94 | 1021.0 |
| 20260507040149 | -1 | 197 | 0.0 | 3.2 | 0.00 | 0.25 | 0.25 | 94 | 1020.7 |
| 20260507035645 | -1 | 197 | 0.0 | 3.2 | 0.00 | 0.25 | 0.25 | 94 | 1020.8 |
| 20260507035141 | -1 | 197 | 0.0 | 0.0 | 0.00 | 0.25 | 0.25 | 93 | 1020.8 |
| 20260507034638 | -1 | 197 | 0.0 | 0.0 | 0.00 | 0.25 | 0.25 | 92 | 1020.8 |
| 20260507034136 | -1 | 197 | 0.0 | 0.0 | 0.00 | 0.25 | 0.25 | 92 | 1020.8 |
| 20260507033634 | -1 | 197 | 0.0 | 0.0 | 0.00 | 0.25 | 0.25 | 90 | 1020.7 |
| 20260507033131 | -1 | 197 | 0.0 | 1.6 | 0.00 | 0.25 | 0.25 | 90 | 1020.8 |
| 20260507032629 | -1 | 192 | 3.2 | 3.2 | 0.00 | 0.25 | 0.25 | 89 | 1020.7 |
| 20260507032124 | 0 | 192 | 3.2 | 3.2 | 0.00 | 0.25 | 0.25 | 89 | 1020.7 |
| 20260507031621 | 0 | 191 | 3.2 | 3.2 | 0.00 | 0.25 | 0.25 | 88 | 1020.8 |
| 20260507031118 | 0 | 142 | 1.6 | 1.6 | 0.00 | 0.25 | 0.25 | 88 | 1020.8 |
| 20260507030615 | 0 | 142 | 1.6 | 3.2 | 0.00 | 0.25 | 0.25 | 88 | 1020.4 |
| 20260507030113 | 0 | 138 | 1.6 | 1.6 | 0.00 | 0.25 | 0.25 | 87 | 1020.3 |
| 20260507025610 | 0 | 169 | 0.0 | 1.6 | 0.00 | 0.25 | 0.25 | 88 | 1020.3 |
| 20260507025106 | 0 | 169 | 1.6 | 1.6 | 0.00 | 0.25 | 0.25 | 86 | 1020.4 |
| 20260507024605 | 0 | 170 | 3.2 | 3.2 | 0.00 | 0.25 | 0.25 | 86 | 1020.4 |
| 20260507024102 | 0 | 169 | 1.6 | 3.2 | 0.00 | 0.25 | 0.25 | 85 | 1020.6 |